Time;durP1;ratioP1;P1;durP2;ratioP2;P2;SDS_P1;SDS_P2;PMS_P1;PMS_P2;Temp;Humidity;BMP_temperature;BMP_pressure;BME280_temperature;BME280_humidity;BME280_pressure;Samples;Min_cycle;Max_cycle;Signal;HPM_P1;HPM_P2
2021/12/03 00:02:50;;;;;;;;;;;1.40;99.90;;;;;;8431688;28;19955;-70
2021/12/03 00:06:52;;;;;;;;;;;1.40;99.90;;;;;;8428212;28;20291;-70
2021/12/03 00:10:57;;;;;;;;;;;1.50;99.90;;;;;;8425841;28;19962;-70
2021/12/03 00:14:59;;;;;;;;;;;1.40;99.90;;;;;;8425310;28;19931;-70
2021/12/03 00:19:00;;;;;;;;;;;1.40;99.90;;;;;;8425128;28;19959;-71
2021/12/03 00:23:03;;;;;;;;;;;1.40;99.90;;;;;;8426802;27;19932;-70
2021/12/03 00:27:06;;;;;;;;;;;1.30;99.90;;;;;;8458750;27;19970;-71
2021/12/03 00:31:08;;;;;;;;;;;1.30;99.90;;;;;;8427461;28;19996;-70
2021/12/03 00:35:10;;;;;;;;;;;1.30;99.90;;;;;;8431695;28;19972;-70
2021/12/03 00:39:12;;;;;;;;;;;1.30;99.90;;;;;;8425679;28;19942;-70
2021/12/03 00:43:14;;;;;;;;;;;1.30;99.90;;;;;;8422093;28;20248;-70
2021/12/03 00:47:16;;;;;;;;;;;1.20;99.90;;;;;;8432749;28;19967;-70
2021/12/03 00:51:20;;;;;;;;;;;1.20;99.90;;;;;;8435371;28;19955;-70
2021/12/03 00:55:22;;;;;;;;;;;1.20;99.90;;;;;;8427720;28;19928;-70
2021/12/03 00:59:24;;;;;;;;;;;1.20;99.90;;;;;;8421548;28;20394;-70
2021/12/03 01:03:25;;;;;;;;;;;1.30;99.90;;;;;;8429865;28;19924;-71
2021/12/03 01:07:27;;;;;;;;;;;1.20;99.90;;;;;;8432301;27;19935;-70
2021/12/03 01:11:46;;;;;;;;;;;1.20;99.90;;;;;;8453996;27;19932;-70
2021/12/03 01:15:48;;;;;;;;;;;1.10;99.90;;;;;;8428960;28;19924;-70
2021/12/03 01:19:50;;;;;;;;;;;1.00;99.90;;;;;;8426029;28;20391;-70
2021/12/03 01:23:52;;;;;;;;;;;1.00;99.90;;;;;;8419798;28;20014;-70
2021/12/03 01:27:54;;;;;;;;;;;1.00;99.90;;;;;;8422195;28;20375;-70
2021/12/03 01:31:56;;;;;;;;;;;1.00;99.90;;;;;;8428063;28;20383;-70
2021/12/03 01:35:58;;;;;;;;;;;1.00;99.90;;;;;;8424810;28;20305;-70
2021/12/03 01:40:00;;;;;;;;;;;1.00;99.90;;;;;;8427671;28;19919;-70
2021/12/03 01:44:03;;;;;;;;;;;1.00;99.90;;;;;;8425939;28;19979;-70
2021/12/03 01:48:04;;;;;;;;;;;1.00;99.90;;;;;;8428630;28;19935;-70
2021/12/03 01:52:06;;;;;;;;;;;1.10;99.90;;;;;;8428649;28;19970;-70
2021/12/03 01:56:10;;;;;;;;;;;1.10;99.90;;;;;;8420611;28;20360;-70
2021/12/03 02:00:14;;;;;;;;;;;1.20;99.90;;;;;;8433843;28;19920;-70
2021/12/03 02:04:16;;;;;;;;;;;1.20;99.90;;;;;;8425205;28;20287;-70
2021/12/03 02:08:18;;;;;;;;;;;1.30;99.90;;;;;;8431034;28;20377;-70
2021/12/03 02:12:20;;;;;;;;;;;1.30;99.90;;;;;;8426011;28;19927;-70
2021/12/03 02:16:22;;;;;;;;;;;1.30;99.90;;;;;;8421342;28;20047;-71
2021/12/03 02:20:25;;;;;;;;;;;1.40;99.90;;;;;;8426631;28;20018;-70
2021/12/03 02:24:26;;;;;;;;;;;1.40;99.90;;;;;;8439962;27;19939;-70
2021/12/03 02:28:29;;;;;;;;;;;1.50;99.90;;;;;;8434652;28;19962;-70
2021/12/03 02:32:30;;;;;;;;;;;1.50;99.90;;;;;;8428252;28;19964;-70
2021/12/03 02:36:32;;;;;;;;;;;1.50;99.90;;;;;;8428135;28;19920;-70
2021/12/03 02:40:34;;;;;;;;;;;1.50;99.90;;;;;;8427322;28;19963;-70
2021/12/03 02:44:35;;;;;;;;;;;1.50;99.90;;;;;;8430359;28;19943;-70
2021/12/03 02:48:37;;;;;;;;;;;1.50;99.90;;;;;;8440566;28;19974;-70
2021/12/03 02:52:39;;;;;;;;;;;1.50;99.90;;;;;;8425300;28;19923;-70
2021/12/03 02:56:41;;;;;;;;;;;1.50;99.90;;;;;;8428387;28;19927;-70
2021/12/03 03:00:43;;;;;;;;;;;1.40;99.90;;;;;;8431424;28;19928;-70
2021/12/03 03:04:45;;;;;;;;;;;1.40;99.90;;;;;;8434877;28;19986;-70
2021/12/03 03:08:48;;;;;;;;;;;1.30;99.90;;;;;;8431667;28;19920;-70
2021/12/03 03:12:49;;;;;;;;;;;1.30;99.90;;;;;;8439132;28;19924;-70
2021/12/03 03:16:51;;;;;;;;;;;1.40;99.90;;;;;;8432635;28;20398;-70
2021/12/03 03:20:54;;;;;;;;;;;1.30;99.90;;;;;;8425078;28;19962;-70
2021/12/03 03:24:59;;;;;;;;;;;1.40;99.90;;;;;;8434009;28;19939;-70
2021/12/03 03:29:01;;;;;;;;;;;1.30;99.90;;;;;;8423673;28;19981;-70
2021/12/03 03:33:03;;;;;;;;;;;1.40;99.90;;;;;;8426972;28;20355;-70
2021/12/03 03:37:05;;;;;;;;;;;1.40;99.90;;;;;;8426298;28;19967;-70
2021/12/03 03:41:06;;;;;;;;;;;1.40;99.90;;;;;;8428973;28;20483;-70
2021/12/03 03:45:10;;;;;;;;;;;1.50;99.90;;;;;;8432384;28;19961;-71
2021/12/03 03:49:11;;;;;;;;;;;1.50;99.90;;;;;;8431340;28;19920;-70
2021/12/03 03:53:13;;;;;;;;;;;1.50;99.90;;;;;;8435521;28;19995;-70
2021/12/03 03:57:15;;;;;;;;;;;1.50;99.90;;;;;;8426232;28;20283;-71
2021/12/03 04:01:16;;;;;;;;;;;1.50;99.90;;;;;;8430351;28;19974;-70
2021/12/03 04:05:18;;;;;;;;;;;1.50;99.90;;;;;;8423974;28;19926;-70
2021/12/03 04:09:20;;;;;;;;;;;1.40;99.90;;;;;;8428113;28;19963;-71
2021/12/03 04:13:22;;;;;;;;;;;1.50;99.90;;;;;;8426229;28;19927;-70
2021/12/03 04:17:24;;;;;;;;;;;1.50;99.90;;;;;;8428652;28;20418;-70
2021/12/03 04:21:26;;;;;;;;;;;1.40;99.90;;;;;;8436409;28;19943;-70
2021/12/03 04:25:27;;;;;;;;;;;1.50;99.90;;;;;;8425369;28;19931;-71
2021/12/03 04:29:29;;;;;;;;;;;1.40;99.90;;;;;;8433611;28;19927;-70
2021/12/03 04:33:30;;;;;;;;;;;1.50;99.90;;;;;;8426465;28;19927;-70
2021/12/03 04:37:32;;;;;;;;;;;1.50;99.90;;;;;;8421615;28;19927;-70
2021/12/03 04:41:34;;;;;;;;;;;1.50;99.90;;;;;;8426594;28;20343;-70
2021/12/03 04:45:35;;;;;;;;;;;1.50;99.90;;;;;;8428955;28;20686;-70
2021/12/03 04:49:37;;;;;;;;;;;1.50;99.90;;;;;;8429415;28;19936;-70
2021/12/03 04:53:39;;;;;;;;;;;1.50;99.90;;;;;;8427318;28;19939;-70
2021/12/03 04:57:41;;;;;;;;;;;1.50;99.90;;;;;;8422500;28;19928;-70
2021/12/03 05:01:42;;;;;;;;;;;1.60;99.90;;;;;;8421261;28;19919;-70
2021/12/03 05:05:52;;;;;;;;;;;1.60;99.90;;;;;;8424359;28;20395;-70
2021/12/03 05:09:55;;;;;;;;;;;1.70;99.90;;;;;;8424663;28;19955;-70
2021/12/03 05:13:56;;;;;;;;;;;1.70;99.90;;;;;;8437425;28;20411;-71
2021/12/03 05:17:58;;;;;;;;;;;1.80;99.90;;;;;;8427232;28;19955;-70
2021/12/03 05:22:00;;;;;;;;;;;1.80;99.90;;;;;;8468823;27;20299;-70
2021/12/03 05:26:02;;;;;;;;;;;1.90;99.90;;;;;;8422585;28;20029;-70
2021/12/03 05:30:04;;;;;;;;;;;2.00;99.90;;;;;;8421120;28;20395;-70
2021/12/03 05:34:10;;;;;;;;;;;2.00;99.90;;;;;;8425372;28;20514;-70
2021/12/03 05:38:11;;;;;;;;;;;2.10;99.90;;;;;;8426267;28;19955;-70
2021/12/03 05:42:13;;;;;;;;;;;2.10;99.90;;;;;;8424471;28;20271;-71
2021/12/03 05:46:15;;;;;;;;;;;2.10;99.90;;;;;;8422450;28;20039;-69
2021/12/03 05:50:17;;;;;;;;;;;2.10;99.90;;;;;;8444239;28;20534;-70
2021/12/03 05:54:20;;;;;;;;;;;2.20;99.90;;;;;;8438441;28;20354;-71
2021/12/03 05:58:23;;;;;;;;;;;2.20;99.90;;;;;;8427464;28;19923;-70
2021/12/03 06:02:25;;;;;;;;;;;2.20;99.90;;;;;;8425516;28;20003;-70
2021/12/03 06:06:27;;;;;;;;;;;2.20;99.90;;;;;;8429145;28;20336;-70
2021/12/03 06:10:29;;;;;;;;;;;2.20;99.90;;;;;;8439381;28;19947;-70
2021/12/03 06:14:30;;;;;;;;;;;2.20;99.90;;;;;;8432885;28;19924;-70
2021/12/03 06:18:32;;;;;;;;;;;2.30;99.90;;;;;;8425823;28;19966;-70
2021/12/03 06:22:34;;;;;;;;;;;2.30;99.90;;;;;;8432599;28;19957;-70
2021/12/03 06:26:36;;;;;;;;;;;2.40;99.90;;;;;;8430001;28;19943;-70
2021/12/03 06:30:37;;;;;;;;;;;2.40;99.90;;;;;;8434052;28;19928;-70
2021/12/03 06:34:39;;;;;;;;;;;2.50;99.90;;;;;;8427141;28;19924;-70
2021/12/03 06:38:41;;;;;;;;;;;2.50;99.90;;;;;;8431430;28;19924;-69
2021/12/03 06:42:43;;;;;;;;;;;2.50;99.90;;;;;;8428536;28;20390;-69
2021/12/03 06:46:45;;;;;;;;;;;2.60;99.90;;;;;;8431004;28;19948;-69
2021/12/03 06:50:49;;;;;;;;;;;2.60;99.90;;;;;;8428595;28;19920;-69
2021/12/03 06:54:56;;;;;;;;;;;2.60;99.90;;;;;;8428812;28;19924;-69
2021/12/03 06:58:58;;;;;;;;;;;2.70;99.90;;;;;;8411584;28;19972;-69
2021/12/03 07:02:59;;;;;;;;;;;2.70;99.90;;;;;;8429830;28;19927;-69
2021/12/03 07:07:01;;;;;;;;;;;2.70;99.90;;;;;;8428435;28;19982;-69
2021/12/03 07:11:03;;;;;;;;;;;2.70;99.90;;;;;;8429635;28;19965;-69
2021/12/03 07:15:05;;;;;;;;;;;2.80;99.90;;;;;;8426427;28;19920;-69
2021/12/03 07:19:07;;;;;;;;;;;2.80;99.90;;;;;;8429814;28;19927;-69
2021/12/03 07:23:08;;;;;;;;;;;2.80;99.90;;;;;;8423777;28;19963;-69
2021/12/03 07:27:10;;;;;;;;;;;2.80;99.90;;;;;;8420549;28;19963;-69
2021/12/03 07:31:12;;;;;;;;;;;2.80;99.90;;;;;;8424522;28;20070;-69
2021/12/03 07:35:14;;;;;;;;;;;2.90;99.90;;;;;;8423559;28;19925;-69
2021/12/03 07:39:15;;;;;;;;;;;2.90;99.90;;;;;;8429283;28;20002;-69
2021/12/03 07:43:17;;;;;;;;;;;2.90;99.90;;;;;;8425353;28;19927;-69
2021/12/03 07:47:19;;;;;;;;;;;2.90;99.90;;;;;;8427241;28;19967;-70
2021/12/03 07:51:21;;;;;;;;;;;2.80;99.90;;;;;;8438553;27;19925;-69
2021/12/03 07:55:22;;;;;;;;;;;2.90;99.90;;;;;;8421169;28;19920;-69
2021/12/03 07:59:24;;;;;;;;;;;2.80;99.90;;;;;;8419900;28;20766;-69
2021/12/03 08:03:26;;;;;;;;;;;2.80;99.90;;;;;;8427216;28;20026;-69
2021/12/03 08:07:28;;;;;;;;;;;2.80;99.90;;;;;;8428604;28;19972;-69
2021/12/03 08:11:29;;;;;;;;;;;2.80;99.90;;;;;;8427750;28;19966;-69
2021/12/03 08:15:36;;;;;;;;;;;2.80;99.90;;;;;;8429401;28;19954;-69
2021/12/03 08:19:38;;;;;;;;;;;2.90;99.90;;;;;;8430076;28;20272;-69
2021/12/03 08:23:40;;;;;;;;;;;2.90;99.90;;;;;;8429167;28;20398;-69
2021/12/03 08:27:41;;;;;;;;;;;2.90;99.90;;;;;;8426754;28;19931;-69
2021/12/03 08:31:43;;;;;;;;;;;2.90;99.90;;;;;;8428552;28;19972;-69
2021/12/03 08:35:44;;;;;;;;;;;2.90;99.90;;;;;;8432810;28;20018;-69
2021/12/03 08:39:46;;;;;;;;;;;2.90;99.90;;;;;;8427794;28;19920;-69
2021/12/03 08:43:48;;;;;;;;;;;3.00;99.90;;;;;;8428897;28;20338;-69
2021/12/03 08:47:53;;;;;;;;;;;3.00;99.90;;;;;;8430182;28;19920;-69
2021/12/03 08:52:21;;;;;;;;;;;3.00;99.90;;;;;;8430460;28;19963;-69
2021/12/03 08:56:16;;;;;;;;;;;3.10;99.90;;;;;;8419951;28;19928;-69
2021/12/03 09:00:22;;;;;;;;;;;3.10;99.90;;;;;;8427471;28;20348;-69
2021/12/03 09:04:23;;;;;;;;;;;3.10;99.90;;;;;;8424045;28;19924;-69
2021/12/03 09:08:25;;;;;;;;;;;3.10;99.90;;;;;;8421819;28;19956;-69
2021/12/03 09:12:27;;;;;;;;;;;3.20;99.90;;;;;;8427237;28;19919;-70
2021/12/03 09:16:28;;;;;;;;;;;3.20;99.90;;;;;;8429638;28;19959;-69
2021/12/03 09:20:56;;;;;;;;;;;3.20;99.90;;;;;;8426927;28;19926;-69
2021/12/03 09:24:53;;;;;;;;;;;3.20;99.90;;;;;;8427420;28;19924;-69
2021/12/03 09:29:06;;;;;;;;;;;3.20;99.90;;;;;;8434670;28;19970;-69
2021/12/03 09:33:10;;;;;;;;;;;3.30;99.90;;;;;;8438745;28;20385;-69
2021/12/03 09:37:12;;;;;;;;;;;3.30;99.90;;;;;;8431028;28;19924;-69
2021/12/03 09:41:15;;;;;;;;;;;3.40;99.90;;;;;;8426304;28;19964;-69
2021/12/03 09:45:17;;;;;;;;;;;3.40;99.90;;;;;;8431897;28;19920;-69
2021/12/03 09:49:26;;;;;;;;;;;3.40;99.90;;;;;;8438329;28;20259;-69
2021/12/03 09:54:01;;;;;;;;;;;3.50;99.90;;;;;;8436100;28;19920;-69
2021/12/03 09:58:09;;;;;;;;;;;3.50;99.90;;;;;;8428644;28;19951;-69
2021/12/03 10:15:07;;;;;;;;;;;3.50;99.90;;;;;;8424593;28;19920;-69
2021/12/03 10:24:34;;;;;;;;;;;3.60;99.90;;;;;;8395050;28;19967;-69
2021/12/03 10:28:37;;;;;;;;;;;3.60;99.90;;;;;;8421807;28;19966;-69
2021/12/03 10:33:01;;;;;;;;;;;3.40;99.90;;;;;;8430929;28;20027;-69
2021/12/03 10:37:18;;;;;;;;;;;3.30;99.90;;;;;;8427392;28;19935;-69
2021/12/03 10:49:43;;;;;;;;;;;3.30;99.90;;;;;;8429404;28;20410;-69
2021/12/03 10:53:54;;;;;;;;;;;3.30;99.90;;;;;;8426081;28;19962;-69
2021/12/03 11:11:37;;;;;;;;;;;3.60;99.90;;;;;;8423836;28;20323;-69
2021/12/03 11:46:33;;;;;;;;;;;4.00;99.90;;;;;;8429706;28;19924;-69
2021/12/03 11:52:08;;;;;;;;;;;4.10;99.90;;;;;;8422390;28;20298;-69
2021/12/03 11:56:08;;;;;;;;;;;4.20;99.90;;;;;;8409439;28;19931;-69
2021/12/03 12:05:20;;;;;;;;;;;4.30;99.90;;;;;;8425899;28;19935;-69
2021/12/03 12:44:51;;;;;;;;;;;4.60;99.90;;;;;;8425114;28;19955;-69
2021/12/03 12:49:56;;;;;;;;;;;4.60;99.90;;;;;;8412866;28;20358;-69
2021/12/03 13:20:13;;;;;;;;;;;4.70;99.90;;;;;;8390776;28;19963;-69
2021/12/03 13:29:19;;;;;;;;;;;4.60;99.90;;;;;;8401494;28;20407;-69
2021/12/03 13:33:48;;;;;;;;;;;4.60;99.90;;;;;;8397246;28;20334;-69
2021/12/03 13:44:23;;;;;;;;;;;4.40;99.90;;;;;;8377556;28;20311;-69
2021/12/03 14:42:47;;;;;;;;;;;4.20;99.90;;;;;;8395250;28;19968;-69
2021/12/03 14:55:23;;;;;;;;;;;4.10;99.90;;;;;;8399683;28;19919;-69
2021/12/03 14:59:29;;;;;;;;;;;4.00;99.90;;;;;;8393174;28;19924;-69
2021/12/03 15:07:44;;;;;;;;;;;4.00;99.90;;;;;;8385504;28;20039;-69
2021/12/03 15:12:04;;;;;;;;;;;4.00;99.90;;;;;;8392210;28;19955;-69
2021/12/03 15:17:19;;;;;;;;;;;3.90;99.90;;;;;;8393447;28;19927;-69
2021/12/03 15:55:15;;;;;;;;;;;4.00;99.90;;;;;;8395101;28;19931;-69
2021/12/03 16:03:44;;;;;;;;;;;4.00;99.90;;;;;;8390616;28;19931;-69
2021/12/03 16:12:08;;;;;;;;;;;4.10;99.90;;;;;;8384736;28;20509;-69
2021/12/03 16:54:35;;;;;;;;;;;4.20;99.90;;;;;;8359539;28;19920;-69
2021/12/03 16:58:39;;;;;;;;;;;4.20;99.90;;;;;;8385124;28;20117;-69
2021/12/03 17:02:47;;;;;;;;;;;4.30;99.90;;;;;;8386472;28;19955;-69
2021/12/03 17:16:08;;;;;;;;;;;4.20;99.90;;;;;;8388633;28;20357;-69
2021/12/03 17:46:00;;;;;;;;;;;4.30;99.90;;;;;;8389436;28;19979;-69
2021/12/03 17:50:11;;;;;;;;;;;4.30;99.90;;;;;;8396345;28;20268;-69
2021/12/03 17:58:35;;;;;;;;;;;4.40;99.90;;;;;;8396827;28;19931;-69
2021/12/03 18:02:43;;;;;;;;;;;4.40;99.90;;;;;;8396215;28;20073;-69
2021/12/03 18:54:39;;;;;;;;;;;4.60;99.90;;;;;;8397483;28;19927;-69
2021/12/03 18:58:41;;;;;;;;;;;4.60;99.90;;;;;;8397492;28;20263;-69
2021/12/03 19:02:46;;;;;;;;;;;4.50;99.90;;;;;;8391433;28;20399;-69
2021/12/03 19:07:06;;;;;;;;;;;4.60;99.90;;;;;;8388165;28;19935;-69
2021/12/03 19:11:17;;;;;;;;;;;4.50;99.90;;;;;;8391309;28;19975;-69
2021/12/03 19:15:19;;;;;;;;;;;4.50;99.90;;;;;;8392852;28;19970;-69
2021/12/03 19:19:21;;;;;;;;;;;4.50;99.90;;;;;;8391555;28;20312;-69
2021/12/03 19:23:23;;;;;;;;;;;4.50;99.90;;;;;;8396121;28;19951;-69
2021/12/03 19:27:25;;;;;;;;;;;4.40;99.90;;;;;;8408645;28;19955;-69
2021/12/03 19:31:28;;;;;;;;;;;4.50;99.90;;;;;;8401164;28;19971;-69
2021/12/03 19:35:29;;;;;;;;;;;4.40;99.90;;;;;;8391567;28;19966;-69
2021/12/03 19:39:31;;;;;;;;;;;4.40;99.90;;;;;;8411597;28;20348;-71
2021/12/03 19:43:44;;;;;;;;;;;4.40;99.90;;;;;;8397841;28;20382;-69
2021/12/03 19:51:51;;;;;;;;;;;4.40;99.90;;;;;;8397084;28;19971;-69
2021/12/03 19:55:53;;;;;;;;;;;4.50;99.90;;;;;;8395536;28;20006;-69
2021/12/03 19:59:55;;;;;;;;;;;4.40;99.90;;;;;;8391477;28;19952;-69
2021/12/03 20:03:57;;;;;;;;;;;4.50;99.90;;;;;;8392685;28;19920;-70
2021/12/03 20:08:00;;;;;;;;;;;4.50;99.90;;;;;;8394727;28;20363;-69
2021/12/03 20:12:07;;;;;;;;;;;4.50;99.90;;;;;;8389419;28;20383;-69
2021/12/03 20:16:27;;;;;;;;;;;4.40;99.90;;;;;;8388445;28;20150;-69
2021/12/03 20:20:28;;;;;;;;;;;4.50;99.90;;;;;;8388785;28;19981;-69
2021/12/03 20:24:42;;;;;;;;;;;4.50;99.90;;;;;;8388647;28;19924;-69
2021/12/03 20:28:51;;;;;;;;;;;4.50;99.90;;;;;;8386888;28;19938;-69
2021/12/03 20:33:04;;;;;;;;;;;4.50;99.90;;;;;;8387155;28;19931;-69
2021/12/03 20:37:52;;;;;;;;;;;4.50;99.90;;;;;;8389072;28;20458;-68
2021/12/03 20:50:10;;;;;;;;;;;4.50;99.90;;;;;;8384586;28;19939;-69
2021/12/03 21:11:20;;;;;;;;;;;4.60;99.90;;;;;;8390131;28;20362;-69
2021/12/03 21:15:34;;;;;;;;;;;4.50;99.90;;;;;;8398180;28;19920;-69
2021/12/03 21:23:45;;;;;;;;;;;4.60;99.90;;;;;;8392289;28;19971;-69
2021/12/03 21:27:54;;;;;;;;;;;4.60;99.90;;;;;;8423838;28;19956;-69
2021/12/03 21:32:05;;;;;;;;;;;4.60;99.90;;;;;;8391063;28;20287;-69
2021/12/03 21:45:06;;;;;;;;;;;4.60;99.90;;;;;;8389669;28;20387;-69
2021/12/03 21:49:11;;;;;;;;;;;4.60;99.90;;;;;;8386745;28;19959;-69
2021/12/03 21:53:13;;;;;;;;;;;4.60;99.90;;;;;;8387855;28;19964;-69
2021/12/03 21:57:14;;;;;;;;;;;4.70;99.90;;;;;;8391050;28;20019;-69
2021/12/03 22:01:16;;;;;;;;;;;4.70;99.90;;;;;;8388329;28;19960;-69
2021/12/03 22:05:17;;;;;;;;;;;4.60;99.90;;;;;;8380844;28;19967;-69
2021/12/03 22:09:19;;;;;;;;;;;4.70;99.90;;;;;;8384965;28;20590;-69
2021/12/03 22:13:25;;;;;;;;;;;4.70;99.90;;;;;;8376656;28;20303;-69
2021/12/03 22:17:26;;;;;;;;;;;4.70;99.90;;;;;;8374598;28;19971;-69
2021/12/03 22:21:28;;;;;;;;;;;4.70;99.90;;;;;;8381851;28;19933;-69
2021/12/03 22:25:30;;;;;;;;;;;4.70;99.90;;;;;;8369139;28;19975;-69
2021/12/03 22:29:31;;;;;;;;;;;4.70;99.90;;;;;;8372439;28;19939;-69
2021/12/03 22:33:33;;;;;;;;;;;4.70;99.90;;;;;;8378530;28;19939;-69
2021/12/03 22:37:35;;;;;;;;;;;4.70;99.90;;;;;;8386692;28;20446;-69
2021/12/03 22:41:39;;;;;;;;;;;4.70;99.90;;;;;;8407261;28;19951;-69
2021/12/03 22:45:56;;;;;;;;;;;4.70;99.90;;;;;;8393171;28;19963;-73
2021/12/03 22:54:15;;;;;;;;;;;4.70;99.90;;;;;;8389986;28;19924;-69
2021/12/03 22:58:16;;;;;;;;;;;4.70;99.90;;;;;;8384542;28;19925;-69
2021/12/03 23:02:18;;;;;;;;;;;4.70;99.90;;;;;;8389521;28;19931;-69
2021/12/03 23:06:20;;;;;;;;;;;4.70;99.90;;;;;;8393034;28;19925;-69
2021/12/03 23:10:21;;;;;;;;;;;4.70;99.90;;;;;;8389643;28;19952;-69
2021/12/03 23:14:23;;;;;;;;;;;4.70;99.90;;;;;;8389040;28;19924;-69
2021/12/03 23:18:25;;;;;;;;;;;4.70;99.90;;;;;;8393409;28;19983;-69
2021/12/03 23:22:27;;;;;;;;;;;4.70;99.90;;;;;;8378038;28;20313;-69
2021/12/03 23:26:30;;;;;;;;;;;4.70;99.90;;;;;;8385464;28;19925;-69
2021/12/03 23:30:33;;;;;;;;;;;4.70;99.90;;;;;;8391519;28;19936;-69
2021/12/03 23:34:36;;;;;;;;;;;4.70;99.90;;;;;;8384132;28;19948;-69
2021/12/03 23:38:38;;;;;;;;;;;4.70;99.90;;;;;;8366128;28;19937;-69
2021/12/03 23:42:57;;;;;;;;;;;4.70;99.90;;;;;;8388350;28;20404;-69
2021/12/03 23:46:59;;;;;;;;;;;4.70;99.90;;;;;;8384985;28;19982;-69
2021/12/03 23:51:02;;;;;;;;;;;4.80;99.90;;;;;;8384552;28;19940;-69
2021/12/03 23:55:04;;;;;;;;;;;4.80;99.90;;;;;;8381597;28;19974;-69
2021/12/03 23:59:06;;;;;;;;;;;4.80;99.90;;;;;;8384587;28;19932;-73
